createdAt,value
2019-05-03T00:01:42.001Z,99596.41
2019-05-03T00:04:12.266Z,99599.14
2019-05-03T00:06:42.598Z,99594.25
2019-05-03T00:09:13.212Z,99595.41
2019-05-03T00:11:42.244Z,99592.63
2019-05-03T00:14:12.439Z,99592.06
2019-05-03T00:16:45.559Z,99594.47
2019-05-03T00:19:14.019Z,99596.85
2019-05-03T00:21:42.463Z,99599.09
2019-05-03T00:24:11.886Z,99600.46
2019-05-03T00:26:42.257Z,99599.97
2019-05-03T00:29:12.644Z,99597.70
2019-05-03T00:31:42.341Z,99602.30
2019-05-03T00:34:28.793Z,99607.45
2019-05-03T00:36:58.866Z,99610.48
2019-05-03T00:39:32.471Z,99610.59
2019-05-03T00:42:02.719Z,99603.38
2019-05-03T00:44:31.766Z,99608.59
2019-05-03T00:47:01.771Z,99611.36
2019-05-03T00:49:32.089Z,99606.16
2019-05-03T00:52:02.359Z,99603.33
2019-05-03T00:54:31.673Z,99605.88
2019-05-03T00:57:02.529Z,99603.02
2019-05-03T00:59:32.505Z,99607.64
2019-05-03T01:02:02.707Z,99608.22
2019-05-03T01:04:31.807Z,99606.13
2019-05-03T01:07:02.206Z,99611.08
2019-05-03T01:09:31.697Z,99608.11
2019-05-03T01:12:01.958Z,99615.22
2019-05-03T01:14:31.694Z,99618.30
2019-05-03T01:17:02.511Z,99622.66
2019-05-03T01:19:32.057Z,99624.70
2019-05-03T01:22:01.946Z,99624.38
2019-05-03T01:24:32.263Z,99626.34
2019-05-03T01:27:01.995Z,99631.77
2019-05-03T01:29:32.272Z,99630.11
2019-05-03T01:32:02.311Z,99635.57
2019-05-03T01:34:32.574Z,99634.34
2019-05-03T01:37:02.651Z,99636.19
2019-05-03T01:39:31.630Z,99642.92
2019-05-03T01:42:02.509Z,99642.77
2019-05-03T01:44:32.504Z,99639.07
2019-05-03T01:47:02.378Z,99639.36
2019-05-03T01:49:38.163Z,99641.05
2019-05-03T01:52:21.928Z,99639.14
2019-05-03T01:54:52.143Z,99637.16
2019-05-03T01:57:22.087Z,99647.45
2019-05-03T01:59:52.056Z,99649.47
2019-05-03T02:02:23.047Z,99644.60
2019-05-03T02:04:53.479Z,99649.55
2019-05-03T02:07:22.386Z,99647.78
2019-05-03T02:09:52.000Z,99648.32
2019-05-03T02:12:22.171Z,99645.61
2019-05-03T02:14:51.695Z,99648.66
2019-05-03T02:17:20.239Z,99649.81
2019-05-03T02:19:48.665Z,99651.80
2019-05-03T02:22:17.086Z,99653.92
2019-05-03T02:24:45.535Z,99653.84
2019-05-03T02:27:13.959Z,99654.85
2019-05-03T02:29:42.388Z,99658.82
2019-05-03T02:32:13.118Z,99652.59
2019-05-03T02:34:43.911Z,99657.37
2019-05-03T02:37:13.822Z,99658.03
2019-05-03T02:39:42.753Z,99661.17
2019-05-03T02:42:11.949Z,99663.28
2019-05-03T02:44:40.538Z,99659.92
2019-05-03T02:47:16.549Z,99659.19
2019-05-03T02:49:49.036Z,99665.61
2019-05-03T02:52:37.133Z,99660.48
2019-05-03T02:55:08.508Z,99663.55
2019-05-03T02:57:37.015Z,99672.86
2019-05-03T03:00:11.117Z,99677.53
2019-05-03T03:02:40.689Z,99673.87
2019-05-03T03:05:09.845Z,99675.28
2019-05-03T03:07:40.318Z,99672.36
2019-05-03T03:10:09.378Z,99672.89
2019-05-03T03:12:41.001Z,99664.70
2019-05-03T03:15:09.893Z,99673.52
2019-05-03T03:17:40.859Z,99671.03
2019-05-03T03:20:09.953Z,99679.09
2019-05-03T03:22:41.461Z,99675.88
2019-05-03T03:25:12.363Z,99675.80
2019-05-03T03:27:45.181Z,99681.06
2019-05-03T03:30:37.979Z,99691.56
2019-05-03T03:33:09.039Z,99694.36
2019-05-03T03:35:39.629Z,99694.80
2019-05-03T03:38:08.098Z,99696.70
2019-05-03T03:40:38.175Z,99689.02
2019-05-03T03:43:08.299Z,99688.53
2019-05-03T03:45:38.776Z,99690.34
2019-05-03T03:48:10.436Z,99692.25
2019-05-03T03:50:41.875Z,99699.80
2019-05-03T03:53:12.038Z,99693.88
2019-05-03T03:55:45.633Z,99694.63
2019-05-03T03:58:21.789Z,99696.73
2019-05-03T04:00:46.215Z,99695.47
2019-05-03T04:03:15.849Z,99700.72
2019-05-03T04:05:46.716Z,99708.66
2019-05-03T04:08:16.223Z,99712.03
2019-05-03T04:10:46.351Z,99715.19
2019-05-03T04:13:16.313Z,99714.38
2019-05-03T04:15:58.817Z,99719.32
2019-05-03T04:18:32.247Z,99725.49
2019-05-03T04:21:00.907Z,99727.46
2019-05-03T04:23:31.135Z,99722.79
2019-05-03T04:25:59.923Z,99729.70
2019-05-03T04:28:28.810Z,99731.39
2019-05-03T04:30:57.228Z,99730.79
2019-05-03T04:33:26.918Z,99735.83
2019-05-03T04:35:55.861Z,99738.84
2019-05-03T04:38:25.690Z,99736.53
2019-05-03T04:40:56.122Z,99747.75
2019-05-03T04:43:26.407Z,99741.98
2019-05-03T04:46:06.230Z,99753.56
2019-05-03T04:48:32.709Z,99749.84
2019-05-03T04:51:01.128Z,99752.44
2019-05-03T04:53:30.750Z,99761.30
2019-05-03T04:55:59.212Z,99755.21
2019-05-03T04:58:27.636Z,99763.06
2019-05-03T05:00:56.098Z,99765.03
2019-05-03T05:03:26.532Z,99760.86
2019-05-03T05:05:55.482Z,99773.14
2019-05-03T05:08:25.295Z,99774.13
2019-05-03T05:10:55.901Z,99780.20
2019-05-03T05:13:25.014Z,99788.36
2019-05-03T05:15:55.125Z,99784.66
2019-05-03T05:18:26.389Z,99792.11
2019-05-03T05:21:11.895Z,99788.80
2019-05-03T05:23:41.959Z,99789.47
2019-05-03T05:26:12.023Z,99781.55
2019-05-03T05:28:42.139Z,99781.27
2019-05-03T05:31:10.574Z,99784.20
2019-05-03T05:33:38.990Z,99785.70
2019-05-03T05:36:07.437Z,99784.77
2019-05-03T05:38:35.891Z,99783.73
2019-05-03T05:41:05.322Z,99786.27
2019-05-03T05:43:35.701Z,99785.85
2019-05-03T05:46:05.699Z,99787.28
2019-05-03T05:48:45.207Z,99797.71
2019-05-03T05:51:15.959Z,99798.02
2019-05-03T05:53:44.753Z,99795.73
2019-05-03T05:56:31.451Z,99788.37
2019-05-03T05:59:01.511Z,99795.94
2019-05-03T06:01:31.579Z,99793.92
2019-05-03T06:04:00.037Z,99797.83
2019-05-03T06:06:34.807Z,99799.87
2019-05-03T06:09:11.921Z,99803.30
2019-05-03T06:11:42.047Z,99804.96
2019-05-03T06:14:12.128Z,99805.44
2019-05-03T06:16:42.298Z,99810.09
2019-05-03T06:19:15.502Z,99807.19
2019-05-03T06:21:48.448Z,99812.45
2019-05-03T06:24:21.210Z,99817.25
2019-05-03T06:26:51.277Z,99819.20
2019-05-03T06:29:19.931Z,99826.06
2019-05-03T06:31:50.068Z,99824.60
2019-05-03T06:34:18.561Z,99823.52
2019-05-03T06:36:51.296Z,99818.37
2019-05-03T06:39:18.839Z,99824.14
2019-05-03T06:41:47.275Z,99827.53
2019-05-03T06:44:19.167Z,99829.30
2019-05-03T06:46:47.784Z,99825.53
2019-05-03T06:49:16.425Z,99828.00
2019-05-03T06:51:49.472Z,99826.97
2019-05-03T06:54:15.842Z,99826.80
2019-05-03T06:56:45.175Z,99828.72
2019-05-03T06:59:21.753Z,99830.75
2019-05-03T07:01:51.912Z,99830.82
2019-05-03T07:04:24.721Z,99834.66
2019-05-03T07:07:10.225Z,99833.63
2019-05-03T07:09:52.360Z,99838.28
2019-05-03T07:12:20.820Z,99841.28
2019-05-03T07:14:50.510Z,99842.84
2019-05-03T07:17:19.058Z,99840.68
2019-05-03T07:19:47.511Z,99841.63
2019-05-03T07:22:16.003Z,99849.09
2019-05-03T07:24:45.503Z,99854.92
2019-05-03T07:27:15.870Z,99857.02
2019-05-03T07:29:44.601Z,99858.00
2019-05-03T07:32:13.089Z,99853.53
2019-05-03T07:34:41.540Z,99862.72
2019-05-03T07:37:09.964Z,99861.55
2019-05-03T07:39:38.382Z,99861.39
2019-05-03T07:42:06.861Z,99867.70
2019-05-03T07:44:35.320Z,99866.30
2019-05-03T07:47:04.756Z,99863.53
2019-05-03T07:49:35.506Z,99869.05
2019-05-03T07:52:05.781Z,99860.19
2019-05-03T07:54:34.849Z,99864.19
2019-05-03T07:57:05.344Z,99864.05
2019-05-03T07:59:35.514Z,99855.64
2019-05-03T08:02:05.633Z,99863.55
2019-05-03T08:04:35.811Z,99859.74
2019-05-03T08:07:04.706Z,99857.84
2019-05-03T08:09:34.982Z,99861.58
2019-05-03T08:12:05.088Z,99860.70
2019-05-03T08:14:35.509Z,99859.58
2019-05-03T08:17:05.122Z,99862.92
2019-05-03T08:19:35.817Z,99854.84
2019-05-03T08:22:04.787Z,99859.64
2019-05-03T08:24:34.562Z,99862.61
2019-05-03T08:27:05.028Z,99860.37
2019-05-03T08:29:35.177Z,99853.12
2019-05-03T08:32:20.842Z,99856.11
2019-05-03T08:34:55.476Z,99857.79
2019-05-03T08:37:28.214Z,99855.72
2019-05-03T08:39:56.687Z,99855.13
2019-05-03T08:42:25.950Z,99860.22
2019-05-03T08:44:55.321Z,99858.78
2019-05-03T08:47:24.780Z,99862.19
2019-05-03T08:49:55.258Z,99858.12
2019-05-03T08:52:24.772Z,99852.00
2019-05-03T08:54:55.082Z,99864.28
2019-05-03T08:57:25.415Z,99852.16
2019-05-03T08:59:54.970Z,99854.00
2019-05-03T09:02:25.603Z,99852.94
2019-05-03T09:04:54.691Z,99846.33
2019-05-03T09:07:25.307Z,99843.17
2019-05-03T09:10:05.432Z,99853.20
2019-05-03T09:12:44.950Z,99847.55
2019-05-03T09:15:15.163Z,99843.70
2019-05-03T09:17:44.615Z,99851.18
2019-05-03T09:20:15.455Z,99845.38
2019-05-03T09:22:45.345Z,99842.23
2019-05-03T09:25:15.498Z,99844.05
2019-05-03T09:27:44.693Z,99836.80
2019-05-03T09:30:14.490Z,99833.41
2019-05-03T09:32:44.766Z,99836.77
2019-05-03T09:35:28.975Z,99826.45
2019-05-03T09:37:45.691Z,99828.93
2019-05-03T09:40:15.168Z,99821.75
2019-05-03T09:42:44.496Z,99818.25
2019-05-03T09:45:15.349Z,99827.97
2019-05-03T09:47:44.768Z,99831.88
2019-05-03T09:50:15.626Z,99823.84
2019-05-03T09:52:46.801Z,99827.79
2019-05-03T09:55:25.536Z,99821.27
2019-05-03T09:57:55.513Z,99817.81
2019-05-03T10:00:24.581Z,99816.44
2019-05-03T10:02:54.806Z,99818.92
2019-05-03T10:05:25.550Z,99823.84
2019-05-03T10:07:53.663Z,99825.51
2019-05-03T10:10:22.212Z,99824.67
2019-05-03T10:12:50.622Z,99829.03
2019-05-03T10:15:38.619Z,99829.58
2019-05-03T10:18:10.925Z,99824.98
2019-05-03T10:20:38.595Z,99818.67
2019-05-03T10:23:09.160Z,99828.92
2019-05-03T10:25:40.183Z,99823.36
2019-05-03T10:28:07.800Z,99831.58
2019-05-03T10:30:36.257Z,99824.14
2019-05-03T10:33:06.389Z,99817.81
2019-05-03T10:35:35.457Z,99820.39
2019-05-03T10:38:05.815Z,99820.69
2019-05-03T10:40:35.764Z,99825.30
2019-05-03T10:43:05.090Z,99819.73
2019-05-03T10:45:35.465Z,99813.02
2019-05-03T10:48:04.840Z,99813.69
2019-05-03T10:50:34.831Z,99810.44
2019-05-03T10:53:05.310Z,99807.38
2019-05-03T10:55:35.803Z,99812.64
2019-05-03T10:58:11.666Z,99809.38
2019-05-03T11:00:46.285Z,99809.39
2019-05-03T11:03:15.342Z,99804.41
2019-05-03T11:05:45.398Z,99805.55
2019-05-03T11:08:14.575Z,99805.73
2019-05-03T11:10:43.172Z,99801.61
2019-05-03T11:13:11.780Z,99794.41
2019-05-03T11:15:40.444Z,99792.20
2019-05-03T11:18:09.003Z,99791.06
2019-05-03T11:20:37.998Z,99796.98
2019-05-03T11:23:07.863Z,99784.53
2019-05-03T11:25:36.927Z,99785.59
2019-05-03T11:28:10.790Z,99793.16
2019-05-03T11:30:51.958Z,99784.98
2019-05-03T11:33:11.073Z,99786.99
2019-05-03T11:35:50.084Z,99785.69
2019-05-03T11:38:20.154Z,99788.89
2019-05-03T11:40:48.602Z,99779.77
2019-05-03T11:43:18.845Z,99779.08
2019-05-03T11:45:47.262Z,99775.91
2019-05-03T11:48:15.692Z,99771.70
2019-05-03T11:50:45.308Z,99783.77
2019-05-03T11:53:14.535Z,99782.10
2019-05-03T11:55:46.264Z,99783.95
2019-05-03T11:58:21.187Z,99782.00
2019-05-03T12:00:51.596Z,99785.59
2019-05-03T12:03:31.040Z,99775.15
2019-05-03T12:06:00.534Z,99777.95
2019-05-03T12:08:29.056Z,99776.02
2019-05-03T12:11:01.290Z,99774.09
2019-05-03T12:13:30.972Z,99775.84
2019-05-03T12:16:01.144Z,99774.89
2019-05-03T12:18:30.013Z,99774.54
2019-05-03T12:20:59.804Z,99769.17
2019-05-03T12:23:31.461Z,99764.08
2019-05-03T12:25:59.510Z,99760.26
2019-05-03T12:28:28.382Z,99757.91
2019-05-03T12:30:56.808Z,99763.81
2019-05-03T12:33:26.065Z,99750.80
2019-05-03T12:35:55.263Z,99750.00
2019-05-03T12:38:25.536Z,99748.13
2019-05-03T12:40:54.712Z,99745.02
2019-05-03T12:43:25.480Z,99744.09
2019-05-03T12:45:53.335Z,99740.55
2019-05-03T12:48:21.859Z,99736.62
2019-05-03T12:50:50.826Z,99744.95
2019-05-03T12:53:21.962Z,99741.87
2019-05-03T12:55:49.848Z,99741.49
2019-05-03T12:58:18.276Z,99749.70
2019-05-03T13:00:51.063Z,99747.90
2019-05-03T13:03:21.150Z,99758.41
2019-05-03T13:05:49.609Z,99752.05
2019-05-03T13:08:35.278Z,99743.38
2019-05-03T13:11:05.297Z,99743.13
2019-05-03T13:13:35.792Z,99745.19
2019-05-03T13:16:05.749Z,99743.47
2019-05-03T13:18:35.056Z,99739.54
2019-05-03T13:21:05.747Z,99755.97
2019-05-03T13:23:35.446Z,99737.67
2019-05-03T13:26:05.602Z,99729.17
2019-05-03T13:28:34.350Z,99723.75
2019-05-03T13:31:02.797Z,99722.73
2019-05-03T13:33:31.344Z,99719.94
2019-05-03T13:35:59.746Z,99717.02
2019-05-03T13:38:28.630Z,99709.30
2019-05-03T13:40:57.077Z,99712.51
2019-05-03T13:43:25.504Z,99710.09
2019-05-03T13:45:55.643Z,99710.57
2019-05-03T13:48:26.142Z,99719.59
2019-05-03T13:50:55.185Z,99712.61
2019-05-03T13:53:25.386Z,99723.66
2019-05-03T13:55:55.203Z,99720.11
2019-05-03T13:58:26.451Z,99717.55
2019-05-03T14:00:55.189Z,99706.87
2019-05-03T14:03:23.716Z,99708.23
2019-05-03T14:05:52.159Z,99701.03
2019-05-03T14:08:20.580Z,99691.36
2019-05-03T14:10:49.004Z,99685.36
2019-05-03T14:13:17.482Z,99688.87
2019-05-03T14:15:45.911Z,99684.83
2019-05-03T14:18:15.251Z,99686.52
2019-05-03T14:20:51.459Z,99685.20
2019-05-03T14:23:19.879Z,99681.17
2019-05-03T14:25:48.304Z,99678.66
2019-05-03T14:28:16.756Z,99680.19
2019-05-03T14:30:45.750Z,99685.72
2019-05-03T14:33:14.244Z,99679.02
2019-05-03T14:35:42.856Z,99675.05
2019-05-03T14:38:15.164Z,99679.42
2019-05-03T14:40:44.888Z,99676.02
2019-05-03T14:43:15.401Z,99675.02
2019-05-03T14:45:43.675Z,99672.72
2019-05-03T14:48:12.094Z,99676.77
2019-05-03T14:50:40.542Z,99676.78
2019-05-03T14:53:08.992Z,99668.17
2019-05-03T14:55:45.277Z,99666.59
2019-05-03T14:58:31.872Z,99668.74
2019-05-03T15:01:10.755Z,99667.92
2019-05-03T15:03:39.236Z,99661.84
2019-05-03T15:06:07.728Z,99666.28
2019-05-03T15:08:36.148Z,99661.71
2019-05-03T15:11:05.370Z,99659.10
2019-05-03T15:13:35.007Z,99664.36
2019-05-03T15:16:05.247Z,99660.25
2019-05-03T15:18:34.820Z,99658.00
2019-05-03T15:21:05.334Z,99656.86
2019-05-03T15:23:34.760Z,99659.41
2019-05-03T15:26:05.127Z,99661.59
2019-05-03T15:28:35.377Z,99665.00
2019-05-03T15:31:04.554Z,99663.28
2019-05-03T15:33:35.150Z,99662.23
2019-05-03T15:36:04.770Z,99654.47
2019-05-03T15:38:34.661Z,99661.00
2019-05-03T15:41:05.173Z,99664.20
2019-05-03T15:43:47.085Z,99647.75
2019-05-03T15:46:20.429Z,99647.07
2019-05-03T15:48:50.513Z,99647.47
2019-05-03T15:51:18.940Z,99643.64
2019-05-03T15:53:47.395Z,99644.55
2019-05-03T15:56:15.888Z,99648.28
2019-05-03T15:58:46.816Z,99644.84
2019-05-03T16:01:15.318Z,99639.77
2019-05-03T16:03:44.860Z,99641.20
2019-05-03T16:06:15.318Z,99634.55
2019-05-03T16:08:44.590Z,99641.31
2019-05-03T16:11:14.854Z,99637.30
2019-05-03T16:13:44.851Z,99634.73
2019-05-03T16:16:15.159Z,99635.02
2019-05-03T16:18:44.869Z,99634.44
2019-05-03T16:21:14.635Z,99627.94
2019-05-03T16:23:46.365Z,99627.73
2019-05-03T16:26:14.304Z,99626.41
2019-05-03T16:28:50.934Z,99625.61
2019-05-03T16:31:21.065Z,99629.26
2019-05-03T16:33:49.571Z,99632.05
2019-05-03T16:36:18.167Z,99635.97
2019-05-03T16:38:46.595Z,99638.24
2019-05-03T16:41:17.659Z,99631.39
2019-05-03T16:43:45.668Z,99628.97
2019-05-03T16:46:14.623Z,99623.61
2019-05-03T16:48:44.794Z,99626.95
2019-05-03T16:51:15.146Z,99631.77
2019-05-03T16:53:44.493Z,99623.71
2019-05-03T16:56:16.547Z,99629.52
2019-05-03T16:58:44.702Z,99626.87
2019-05-03T17:01:17.480Z,99626.20
2019-05-03T17:03:45.748Z,99623.22
2019-05-03T17:06:34.714Z,99623.42
2019-05-03T17:09:05.208Z,99626.11
2019-05-03T17:11:34.731Z,99627.91
2019-05-03T17:14:05.004Z,99631.44
2019-05-03T17:16:34.459Z,99639.09
2019-05-03T17:19:03.022Z,99625.95
2019-05-03T17:21:31.499Z,99635.12
2019-05-03T17:23:59.968Z,99632.10
2019-05-03T17:26:28.537Z,99640.61
2019-05-03T17:28:56.990Z,99638.05
2019-05-03T17:31:25.419Z,99643.20
2019-05-03T17:33:56.729Z,99642.18
2019-05-03T17:36:25.084Z,99648.62
2019-05-03T17:38:55.288Z,99647.08
2019-05-03T17:41:31.588Z,99649.87
2019-05-03T17:44:01.650Z,99653.41
2019-05-03T17:46:30.081Z,99652.73
2019-05-03T17:48:58.534Z,99644.27
2019-05-03T17:51:45.462Z,99644.26
2019-05-03T17:54:27.139Z,99650.20
2019-05-03T17:57:05.940Z,99650.98
2019-05-03T17:59:44.980Z,99655.81
2019-05-03T18:02:18.024Z,99655.33
2019-05-03T18:05:05.277Z,99655.81
2019-05-03T18:07:35.363Z,99658.84
2019-05-03T18:10:06.497Z,99654.61
2019-05-03T18:12:35.115Z,99651.66
2019-05-03T18:15:05.697Z,99657.38
2019-05-03T18:17:35.220Z,99656.53
2019-05-03T18:20:05.293Z,99657.89
2019-05-03T18:22:33.713Z,99661.12
2019-05-03T18:25:02.133Z,99663.73
2019-05-03T18:27:30.580Z,99655.63
2019-05-03T18:29:59.176Z,99662.30
2019-05-03T18:32:28.140Z,99665.01
2019-05-03T18:34:56.586Z,99661.70
2019-05-03T18:37:25.024Z,99660.68
2019-05-03T18:39:54.716Z,99666.49
2019-05-03T18:42:24.913Z,99665.33
2019-05-03T18:44:55.278Z,99669.89
2019-05-03T18:47:25.287Z,99660.69
2019-05-03T18:49:54.959Z,99659.91
2019-05-03T18:52:23.583Z,99660.91
2019-05-03T18:54:52.480Z,99664.78
2019-05-03T18:57:20.951Z,99671.05
2019-05-03T18:59:49.369Z,99672.63
2019-05-03T19:02:17.936Z,99681.48
2019-05-03T19:04:51.206Z,99679.06
2019-05-03T19:07:21.446Z,99682.05
2019-05-03T19:09:55.450Z,99682.36
2019-05-03T19:12:31.484Z,99680.22
2019-05-03T19:14:59.979Z,99683.03
2019-05-03T19:17:32.970Z,99689.73
2019-05-03T19:20:01.741Z,99687.91
2019-05-03T19:22:30.166Z,99687.77
2019-05-03T19:24:58.760Z,99682.96
2019-05-03T19:27:27.226Z,99680.93
2019-05-03T19:29:55.656Z,99679.41
2019-05-03T19:32:25.457Z,99686.59
2019-05-03T19:34:54.960Z,99684.88
2019-05-03T19:37:25.178Z,99684.84
2019-05-03T19:39:55.286Z,99682.64
2019-05-03T19:42:24.821Z,99692.49
2019-05-03T19:44:55.320Z,99689.39
2019-05-03T19:47:25.145Z,99697.03
2019-05-03T19:49:54.689Z,99695.06
2019-05-03T19:52:25.558Z,99696.66
2019-05-03T19:54:55.468Z,99686.80
2019-05-03T19:57:25.683Z,99686.64
2019-05-03T19:59:56.866Z,99691.52
2019-05-03T20:02:35.009Z,99693.34
2019-05-03T20:05:10.734Z,99687.79
2019-05-03T20:07:45.197Z,99688.80
2019-05-03T20:10:14.718Z,99692.26
2019-05-03T20:12:44.294Z,99689.20
2019-05-03T20:15:14.508Z,99687.30
2019-05-03T20:17:54.616Z,99689.00
2019-05-03T20:20:15.447Z,99689.67
2019-05-03T20:22:45.443Z,99683.77
2019-05-03T20:25:15.143Z,99682.98
2019-05-03T20:27:44.514Z,99684.41
2019-05-03T20:30:15.054Z,99685.87
2019-05-03T20:32:45.068Z,99682.53
2019-05-03T20:35:18.890Z,99681.59
2019-05-03T20:37:44.851Z,99680.09
2019-05-03T20:40:15.275Z,99672.76
2019-05-03T20:42:54.456Z,99674.75
2019-05-03T20:45:24.930Z,99664.76
2019-05-03T20:47:55.082Z,99672.00
2019-05-03T20:50:24.762Z,99672.28
2019-05-03T20:52:54.982Z,99678.77
2019-05-03T20:55:25.479Z,99676.58
2019-05-03T20:57:54.930Z,99676.14
2019-05-03T21:00:25.729Z,99683.45
2019-05-03T21:02:57.157Z,99680.33
2019-05-03T21:05:30.366Z,99689.10
2019-05-03T21:07:55.057Z,99690.14
2019-05-03T21:10:23.703Z,99687.87
2019-05-03T21:12:54.288Z,99682.19
2019-05-03T21:15:29.949Z,99673.22
2019-05-03T21:18:12.152Z,99674.03
2019-05-03T21:20:48.017Z,99674.23
2019-05-03T21:23:20.551Z,99678.06
2019-05-03T21:26:12.921Z,99674.29
2019-05-03T21:28:39.464Z,99677.75
2019-05-03T21:31:07.921Z,99676.55
2019-05-03T21:33:36.410Z,99676.42
2019-05-03T21:36:05.211Z,99667.58
2019-05-03T21:38:35.436Z,99665.87
2019-05-03T21:41:05.206Z,99669.23
2019-05-03T21:43:34.924Z,99671.84
2019-05-03T21:46:17.258Z,99668.51
2019-05-03T21:48:47.348Z,99663.81
2019-05-03T21:51:15.840Z,99663.08
2019-05-03T21:53:45.046Z,99660.98
2019-05-03T21:56:15.239Z,99655.89
2019-05-03T21:58:44.645Z,99648.48
2019-05-03T22:01:15.521Z,99653.43
2019-05-03T22:03:44.735Z,99644.98
2019-05-03T22:06:15.440Z,99645.00
2019-05-03T22:08:45.369Z,99642.81
2019-05-03T22:11:14.817Z,99646.31
2019-05-03T22:13:45.454Z,99645.98
2019-05-03T22:16:15.777Z,99640.89
2019-05-03T22:18:45.483Z,99637.42
2019-05-03T22:21:18.115Z,99634.15
2019-05-03T22:24:00.305Z,99636.02
2019-05-03T22:26:46.739Z,99634.42
2019-05-03T22:29:17.200Z,99633.50
2019-05-03T22:31:45.807Z,99633.06
2019-05-03T22:34:15.046Z,99642.66
2019-05-03T22:36:44.395Z,99637.60
2019-05-03T22:39:13.072Z,99629.80
2019-05-03T22:41:41.530Z,99632.55
2019-05-03T22:44:10.083Z,99622.98
2019-05-03T22:46:38.520Z,99617.41
2019-05-03T22:49:07.010Z,99607.50
2019-05-03T22:51:35.526Z,99612.45
2019-05-03T22:54:04.718Z,99609.16
2019-05-03T22:56:35.460Z,99609.27
2019-05-03T22:59:05.368Z,99606.44
2019-05-03T23:01:35.252Z,99597.83
2019-05-03T23:04:05.598Z,99596.20
2019-05-03T23:06:34.385Z,99594.48
2019-05-03T23:09:05.020Z,99593.32
2019-05-03T23:11:35.346Z,99596.17
2019-05-03T23:14:04.991Z,99589.99
2019-05-03T23:16:35.702Z,99583.92
2019-05-03T23:19:05.605Z,99575.96
2019-05-03T23:21:44.570Z,99570.88
2019-05-03T23:24:13.010Z,99566.42
2019-05-03T23:26:41.435Z,99557.92
2019-05-03T23:29:09.901Z,99556.06
2019-05-03T23:31:38.332Z,99553.50
2019-05-03T23:34:06.752Z,99554.69
2019-05-03T23:36:36.339Z,99547.09
2019-05-03T23:39:07.755Z,99547.72
2019-05-03T23:41:36.240Z,99537.84
2019-05-03T23:44:04.987Z,99530.52
2019-05-03T23:46:35.050Z,99530.64
2019-05-03T23:49:03.509Z,99525.82
2019-05-03T23:51:36.020Z,99525.00
2019-05-03T23:54:05.580Z,99520.18
2019-05-03T23:56:35.075Z,99516.33
2019-05-03T23:59:05.368Z,99510.61
